createdAt,value
2023-04-14T00:01:35.765Z,9.12
2023-04-14T00:04:05.270Z,9.13
2023-04-14T00:06:33.883Z,9.14
2023-04-14T00:09:02.330Z,9.16
2023-04-14T00:11:31.083Z,9.17
2023-04-14T00:14:01.463Z,9.18
2023-04-14T00:16:32.948Z,9.18
2023-04-14T00:19:02.816Z,9.19
2023-04-14T00:21:31.913Z,9.20
2023-04-14T00:24:03.081Z,9.21
2023-04-14T00:26:34.583Z,9.20
2023-04-14T00:29:03.029Z,9.20
2023-04-14T00:31:35.659Z,9.21
2023-04-14T00:34:06.208Z,9.20
2023-04-14T00:36:35.183Z,9.20
2023-04-14T00:39:05.060Z,9.21
2023-04-14T00:41:36.591Z,9.22
2023-04-14T00:44:05.610Z,9.21
2023-04-14T00:46:33.908Z,9.21
2023-04-14T00:49:02.837Z,9.21
2023-04-14T00:51:32.487Z,9.21
2023-04-14T00:54:02.963Z,9.20
2023-04-14T00:56:31.931Z,9.19
2023-04-14T00:59:02.761Z,9.18
2023-04-14T01:01:31.825Z,9.17
2023-04-14T01:04:01.013Z,9.16
2023-04-14T01:06:30.179Z,9.15
2023-04-14T01:08:58.686Z,9.15
2023-04-14T01:12:09.246Z,9.15
2023-04-14T01:14:59.876Z,9.14
2023-04-14T01:17:36.948Z,9.14
2023-04-14T01:20:17.684Z,9.13
2023-04-14T01:23:13.934Z,9.13
2023-04-14T01:25:56.967Z,9.13
2023-04-14T01:29:01.751Z,9.12
2023-04-14T01:31:38.452Z,9.12
2023-04-14T01:34:11.853Z,9.10
2023-04-14T01:36:57.132Z,9.10
2023-04-14T01:39:27.864Z,9.08
2023-04-14T01:41:58.469Z,9.05
2023-04-14T01:44:27.093Z,9.01
2023-04-14T01:46:57.667Z,8.97
2023-04-14T01:49:27.003Z,8.96
2023-04-14T01:51:56.917Z,8.95
2023-04-14T01:54:25.633Z,8.93
2023-04-14T01:56:53.979Z,8.92
2023-04-14T01:59:23.134Z,8.91
2023-04-14T02:01:51.557Z,8.90
2023-04-14T02:04:21.832Z,8.89
2023-04-14T02:08:49.735Z,8.86
2023-04-14T02:11:19.156Z,8.83
2023-04-14T02:13:48.836Z,8.82
2023-04-14T02:16:18.234Z,8.82
2023-04-14T02:18:46.948Z,8.80
2023-04-14T02:21:19.008Z,8.79
2023-04-14T02:23:48.119Z,8.79
2023-04-14T02:26:18.774Z,8.78
2023-04-14T02:29:09.733Z,8.77
2023-04-14T02:31:42.284Z,8.76
2023-04-14T02:34:12.579Z,8.75
2023-04-14T02:36:58.356Z,8.74
2023-04-14T02:39:32.427Z,8.72
2023-04-14T02:42:06.105Z,8.72
2023-04-14T02:44:36.447Z,8.70
2023-04-14T02:47:07.871Z,8.70
2023-04-14T02:49:42.918Z,8.71
2023-04-14T02:52:12.861Z,8.71
2023-04-14T02:54:42.747Z,8.71
2023-04-14T02:57:11.368Z,8.70
2023-04-14T02:59:42.602Z,8.69
2023-04-14T03:02:12.842Z,8.68
2023-04-14T03:04:45.730Z,8.68
2023-04-14T03:07:21.932Z,8.66
2023-04-14T03:09:50.960Z,8.67
2023-04-14T03:12:20.625Z,8.66
2023-04-14T03:14:49.357Z,8.66
2023-04-14T03:17:20.384Z,8.67
2023-04-14T03:19:49.677Z,8.67
2023-04-14T03:22:19.890Z,8.66
2023-04-14T03:24:48.543Z,8.65
2023-04-14T03:27:26.411Z,8.64
2023-04-14T03:29:57.027Z,8.63
2023-04-14T03:32:37.140Z,8.61
2023-04-14T03:35:07.282Z,8.60
2023-04-14T03:37:38.688Z,8.59
2023-04-14T03:40:08.713Z,8.57
2023-04-14T03:42:39.844Z,8.56
2023-04-14T03:45:09.525Z,8.55
2023-04-14T03:47:40.733Z,8.56
2023-04-14T03:50:10.554Z,8.56
2023-04-14T03:52:38.821Z,8.56
2023-04-14T03:55:08.685Z,8.57
2023-04-14T03:57:38.612Z,8.58
2023-04-14T04:00:09.456Z,8.58
2023-04-14T04:02:47.874Z,8.59
2023-04-14T04:05:16.935Z,8.60
2023-04-14T04:07:45.582Z,8.61
2023-04-14T04:10:16.632Z,8.63
2023-04-14T04:12:45.192Z,8.65
2023-04-14T04:15:22.245Z,8.67
2023-04-14T04:17:51.497Z,8.69
2023-04-14T04:20:19.934Z,8.69
2023-04-14T04:22:49.980Z,8.69
2023-04-14T04:25:18.735Z,8.71
2023-04-14T04:27:53.331Z,8.69
2023-04-14T04:30:23.073Z,8.67
2023-04-14T04:32:52.360Z,8.65
2023-04-14T04:35:20.635Z,8.63
2023-04-14T04:37:48.858Z,8.65
2023-04-14T04:40:17.473Z,8.68
2023-04-14T04:42:48.019Z,8.72
2023-04-14T04:45:47.256Z,8.76
2023-04-14T04:48:15.998Z,8.79
2023-04-14T04:50:45.504Z,8.81
2023-04-14T04:53:14.259Z,8.81
2023-04-14T04:55:43.512Z,8.79
2023-04-14T04:58:12.125Z,8.75
2023-04-14T05:00:40.396Z,8.73
2023-04-14T05:03:19.623Z,8.74
2023-04-14T05:05:47.910Z,8.73
2023-04-14T05:08:16.497Z,8.72
2023-04-14T05:10:45.040Z,8.68
2023-04-14T05:13:13.287Z,8.65
2023-04-14T05:15:41.506Z,8.63
2023-04-14T05:18:09.797Z,8.63
2023-04-14T05:20:38.425Z,8.63
2023-04-14T05:23:06.919Z,8.64
2023-04-14T05:25:35.802Z,8.66
2023-04-14T05:28:05.118Z,8.69
2023-04-14T05:30:33.417Z,8.73
2023-04-14T05:33:01.952Z,8.79
2023-04-14T05:35:31.321Z,8.84
2023-04-14T05:37:59.922Z,8.93
2023-04-14T05:40:30.269Z,9.00
2023-04-14T05:42:59.428Z,9.06
2023-04-14T05:45:27.952Z,9.10
2023-04-14T05:47:57.848Z,9.11
2023-04-14T05:50:27.163Z,9.11
2023-04-14T05:52:55.735Z,9.06
2023-04-14T05:55:25.608Z,9.02
2023-04-14T05:57:54.194Z,8.97
2023-04-14T06:00:25.302Z,8.92
2023-04-14T06:02:55.834Z,8.87
2023-04-14T06:05:25.452Z,8.83
2023-04-14T06:07:54.068Z,8.81
2023-04-14T06:10:27.563Z,8.78
2023-04-14T06:12:57.317Z,8.75
2023-04-14T06:15:28.464Z,8.73
2023-04-14T06:18:00.229Z,8.71
2023-04-14T06:20:31.869Z,8.67
2023-04-14T06:23:01.370Z,8.66
2023-04-14T06:25:29.828Z,8.67
2023-04-14T06:28:03.793Z,8.66
2023-04-14T06:30:32.529Z,8.68
2023-04-14T06:33:04.612Z,8.69
2023-04-14T06:35:35.315Z,8.70
2023-04-14T06:38:03.570Z,8.70
2023-04-14T06:40:32.156Z,8.68
2023-04-14T06:43:00.451Z,8.68
2023-04-14T06:45:31.234Z,8.68
2023-04-14T06:48:00.116Z,8.69
2023-04-14T06:50:28.481Z,8.71
2023-04-14T06:52:57.478Z,8.72
2023-04-14T06:55:25.842Z,8.75
2023-04-14T06:57:58.109Z,8.78
2023-04-14T07:00:26.835Z,8.77
2023-04-14T07:02:55.335Z,8.75
2023-04-14T07:05:23.966Z,8.72
2023-04-14T07:07:52.776Z,8.70
2023-04-14T07:10:21.219Z,8.71
2023-04-14T07:12:49.934Z,8.70
2023-04-14T07:15:19.865Z,8.67
2023-04-14T07:17:48.932Z,8.64
2023-04-14T07:20:17.324Z,8.63
2023-04-14T07:22:45.832Z,8.62
2023-04-14T07:25:14.433Z,8.59
2023-04-14T07:27:49.915Z,8.56
2023-04-14T07:30:29.940Z,8.52
2023-04-14T07:33:01.028Z,8.51
2023-04-14T07:35:29.565Z,8.50
2023-04-14T07:37:58.454Z,8.47
2023-04-14T07:40:27.320Z,8.46
2023-04-14T07:42:55.765Z,8.44
2023-04-14T07:45:24.430Z,8.45
2023-04-14T07:47:53.834Z,8.48
2023-04-14T07:50:24.008Z,8.51
2023-04-14T07:52:52.240Z,8.51
2023-04-14T07:55:20.901Z,8.50
2023-04-14T07:57:51.851Z,8.49
2023-04-14T08:00:20.443Z,8.49
2023-04-14T08:02:49.699Z,8.51
2023-04-14T08:05:18.416Z,8.51
2023-04-14T08:07:49.644Z,8.50
2023-04-14T08:10:18.301Z,8.49
2023-04-14T08:12:47.245Z,8.48
2023-04-14T08:15:16.535Z,8.46
2023-04-14T08:17:45.317Z,8.43
2023-04-14T08:20:14.347Z,8.41
2023-04-14T08:22:43.558Z,8.39
2023-04-14T08:25:12.605Z,8.39
2023-04-14T08:27:41.635Z,8.40
2023-04-14T08:30:11.519Z,8.44
2023-04-14T08:32:42.169Z,8.45
2023-04-14T08:35:37.567Z,8.44
2023-04-14T08:38:01.513Z,8.44
2023-04-14T08:40:42.756Z,8.44
2023-04-14T08:43:14.547Z,8.44
2023-04-14T08:45:43.930Z,8.44
2023-04-14T08:48:13.098Z,8.46
2023-04-14T08:50:46.177Z,8.49
2023-04-14T08:53:18.788Z,8.53
2023-04-14T08:55:48.705Z,8.59
2023-04-14T08:58:17.430Z,8.68
2023-04-14T09:00:49.380Z,8.73
2023-04-14T09:03:19.246Z,8.74
2023-04-14T09:05:48.113Z,8.79
2023-04-14T09:08:16.273Z,8.89
2023-04-14T09:10:45.432Z,9.00
2023-04-14T09:13:15.574Z,9.09
2023-04-14T09:15:43.878Z,9.16
2023-04-14T09:18:14.665Z,9.21
2023-04-14T09:20:42.959Z,9.26
2023-04-14T09:23:11.923Z,9.32
2023-04-14T09:25:44.243Z,9.33
2023-04-14T09:28:12.684Z,9.34
2023-04-14T09:30:41.833Z,9.32
2023-04-14T09:35:55.502Z,9.24
2023-04-14T09:38:35.799Z,9.20
2023-04-14T09:41:07.928Z,9.12
2023-04-14T09:43:37.051Z,9.05
2023-04-14T09:46:07.923Z,8.99
2023-04-14T09:48:41.116Z,8.99
2023-04-14T09:51:14.219Z,8.98
2023-04-14T09:53:48.063Z,9.02
2023-04-14T09:56:17.910Z,9.06
2023-04-14T09:58:50.666Z,9.11
2023-04-14T10:01:19.748Z,9.17
2023-04-14T10:03:49.758Z,9.24
2023-04-14T10:06:20.582Z,9.33
2023-04-14T10:08:53.612Z,9.39
2023-04-14T10:11:35.479Z,9.47
2023-04-14T10:14:05.532Z,9.53
2023-04-14T10:16:34.433Z,9.53
2023-04-14T10:19:03.938Z,9.50
2023-04-14T10:21:36.761Z,9.47
2023-04-14T10:24:05.767Z,9.44
2023-04-14T10:26:36.311Z,9.43
2023-04-14T10:29:06.255Z,9.42
2023-04-14T10:31:37.119Z,9.38
2023-04-14T10:34:13.882Z,9.35
2023-04-14T10:36:43.567Z,9.40
2023-04-14T10:39:12.455Z,9.45
2023-04-14T10:41:44.085Z,9.47
2023-04-14T10:44:32.466Z,9.48
2023-04-14T10:47:02.586Z,9.53
2023-04-14T10:49:31.747Z,9.58
2023-04-14T10:52:05.159Z,9.62
2023-04-14T10:54:54.587Z,9.67
2023-04-14T10:57:23.864Z,9.70
2023-04-14T11:00:00.235Z,9.74
2023-04-14T11:02:31.679Z,9.75
2023-04-14T11:05:09.409Z,9.74
2023-04-14T11:07:46.350Z,9.75
2023-04-14T11:10:21.726Z,9.77
2023-04-14T11:13:13.021Z,9.79
2023-04-14T11:15:46.936Z,9.79
2023-04-14T11:18:17.684Z,9.79
2023-04-14T11:20:46.057Z,9.76
2023-04-14T11:23:19.416Z,9.69
2023-04-14T11:25:48.785Z,9.65
2023-04-14T11:28:18.247Z,9.63
2023-04-14T11:30:47.093Z,9.60
2023-04-14T11:33:15.607Z,9.56
2023-04-14T11:35:43.915Z,9.51
2023-04-14T11:38:12.305Z,9.44
2023-04-14T11:40:40.849Z,9.37
2023-04-14T11:43:10.390Z,9.34
2023-04-14T11:45:48.009Z,9.35
2023-04-14T11:48:17.938Z,9.35
2023-04-14T11:50:47.835Z,9.37
2023-04-14T11:53:17.741Z,9.39
2023-04-14T11:55:50.064Z,9.42
2023-04-14T11:58:24.011Z,9.44
2023-04-14T12:00:55.643Z,9.44
2023-04-14T12:03:37.138Z,9.43
2023-04-14T12:06:05.824Z,9.42
2023-04-14T12:08:34.218Z,9.39
2023-04-14T12:11:16.564Z,9.32
2023-04-14T12:13:46.710Z,9.23
2023-04-14T12:16:16.147Z,9.17
2023-04-14T12:18:47.463Z,9.12
2023-04-14T12:21:19.236Z,9.09
2023-04-14T12:23:50.797Z,9.10
2023-04-14T12:26:25.786Z,9.14
2023-04-14T12:28:57.974Z,9.16
2023-04-14T12:31:32.383Z,9.20
2023-04-14T12:34:04.072Z,9.25
2023-04-14T12:36:48.714Z,9.28
2023-04-14T12:39:22.569Z,9.34
2023-04-14T12:41:50.802Z,9.42
2023-04-14T12:44:20.865Z,9.50
2023-04-14T12:46:51.040Z,9.58
2023-04-14T12:49:33.129Z,9.62
2023-04-14T12:52:01.350Z,9.64
2023-04-14T12:54:50.293Z,9.68
2023-04-14T12:57:23.717Z,9.70
2023-04-14T12:59:53.025Z,9.64
2023-04-14T13:02:22.714Z,9.52
2023-04-14T13:04:51.369Z,9.35
2023-04-14T13:07:20.477Z,9.18
2023-04-14T13:09:48.881Z,9.07
2023-04-14T13:19:55.662Z,9.01
2023-04-14T13:22:25.156Z,8.98
2023-04-14T13:24:53.513Z,8.96
2023-04-14T13:27:21.956Z,8.94
2023-04-14T13:29:54.798Z,8.86
2023-04-14T13:32:23.961Z,8.77
2023-04-14T13:34:52.837Z,8.68
2023-04-14T13:37:22.460Z,8.59
2023-04-14T13:39:51.079Z,8.51
2023-04-14T13:42:19.560Z,8.45
2023-04-14T13:44:48.358Z,8.42
2023-04-14T13:47:19.045Z,8.41
2023-04-14T13:49:47.592Z,8.40
2023-04-14T13:52:15.916Z,8.35
2023-04-14T13:54:46.617Z,8.34
2023-04-14T13:57:14.826Z,8.33
2023-04-14T13:59:43.392Z,8.32
2023-04-14T14:02:11.712Z,8.32
2023-04-14T14:04:42.315Z,8.32
2023-04-14T14:07:10.965Z,8.34
2023-04-14T14:09:39.138Z,8.36
2023-04-14T14:12:11.018Z,8.38
2023-04-14T14:14:39.280Z,8.40
2023-04-14T14:17:08.440Z,8.42
2023-04-14T14:19:37.900Z,8.44
2023-04-14T14:22:07.698Z,8.45
2023-04-14T14:26:36.195Z,8.49
2023-04-14T14:29:05.441Z,8.48
2023-04-14T14:31:34.918Z,8.46
2023-04-14T14:34:03.676Z,8.42
2023-04-14T14:36:33.039Z,8.32
2023-04-14T14:39:03.694Z,8.13
2023-04-14T14:41:33.822Z,7.93
2023-04-14T14:44:02.160Z,7.80
2023-04-14T14:46:36.931Z,7.69
2023-04-14T14:49:05.666Z,7.61
2023-04-14T14:51:34.144Z,7.53
2023-04-14T14:54:09.791Z,7.47
2023-04-14T14:56:38.960Z,7.42
2023-04-14T14:59:08.695Z,7.36
2023-04-14T15:01:37.394Z,7.32
2023-04-14T15:04:06.789Z,7.28
2023-04-14T15:06:36.597Z,7.28
2023-04-14T15:09:05.906Z,7.29
2023-04-14T15:11:38.931Z,7.30
2023-04-14T15:14:07.788Z,7.32
2023-04-14T15:16:36.150Z,7.33
2023-04-14T15:19:12.613Z,7.38
2023-04-14T15:21:43.607Z,7.41
2023-04-14T15:24:12.099Z,7.44
2023-04-14T15:26:40.587Z,7.47
2023-04-14T15:29:09.106Z,7.46
2023-04-14T15:31:37.784Z,7.47
2023-04-14T15:34:07.138Z,7.46
2023-04-14T15:36:36.160Z,7.44
2023-04-14T15:39:04.417Z,7.40
2023-04-14T15:41:33.089Z,7.35
2023-04-14T15:44:02.514Z,7.32
2023-04-14T15:46:31.947Z,7.28
2023-04-14T15:49:03.549Z,7.25
2023-04-14T15:51:32.749Z,7.22
2023-04-14T15:54:01.590Z,7.20
2023-04-14T15:56:31.636Z,7.21
2023-04-14T15:59:02.181Z,7.22
2023-04-14T16:01:31.089Z,7.22
2023-04-14T16:04:00.873Z,7.24
2023-04-14T16:06:30.779Z,7.24
2023-04-14T16:09:02.983Z,7.22
2023-04-14T16:11:31.594Z,7.21
2023-04-14T16:14:03.780Z,7.20
2023-04-14T16:16:32.848Z,7.20
2023-04-14T16:19:01.659Z,7.22
2023-04-14T16:21:34.579Z,7.22
2023-04-14T16:24:03.982Z,7.20
2023-04-14T16:26:33.347Z,7.19
2023-04-14T16:29:02.911Z,7.18
2023-04-14T16:31:33.249Z,7.19
2023-04-14T16:34:02.145Z,7.18
2023-04-14T16:36:32.212Z,7.19
2023-04-14T16:39:01.938Z,7.20
2023-04-14T16:41:30.724Z,7.20
2023-04-14T16:44:00.551Z,7.19
2023-04-14T16:46:30.049Z,7.18
2023-04-14T16:48:59.131Z,7.18
2023-04-14T16:51:35.063Z,7.18
2023-04-14T16:54:04.853Z,7.17
2023-04-14T16:56:36.942Z,7.17
2023-04-14T16:59:07.930Z,7.17
2023-04-14T17:01:36.614Z,7.16
2023-04-14T17:04:05.724Z,7.16
2023-04-14T17:06:37.073Z,7.15
2023-04-14T17:09:07.070Z,7.14
2023-04-14T17:11:35.525Z,7.14
2023-04-14T17:14:04.068Z,7.13
2023-04-14T17:16:35.689Z,7.12
2023-04-14T17:19:04.671Z,7.12
2023-04-14T17:21:33.568Z,7.12
2023-04-14T17:24:06.004Z,7.11
2023-04-14T17:26:35.241Z,7.11
2023-04-14T17:29:04.403Z,7.10
2023-04-14T17:31:33.506Z,7.10
2023-04-14T17:34:02.071Z,7.09
2023-04-14T17:36:31.035Z,7.09
2023-04-14T17:39:00.720Z,7.10
2023-04-14T17:41:29.445Z,7.10
2023-04-14T17:44:01.059Z,7.09
2023-04-14T17:46:33.984Z,7.08
2023-04-14T17:49:04.060Z,7.06
2023-04-14T17:51:35.782Z,7.01
2023-04-14T17:54:05.701Z,6.97
2023-04-14T17:56:37.182Z,6.95
2023-04-14T17:59:07.112Z,6.92
2023-04-14T18:01:36.378Z,6.87
2023-04-14T18:04:05.497Z,6.84
2023-04-14T18:06:35.262Z,6.81
2023-04-14T18:09:05.794Z,6.80
2023-04-14T18:11:39.505Z,6.80
2023-04-14T18:14:07.963Z,6.80
2023-04-14T18:16:41.497Z,6.80
2023-04-14T18:19:12.707Z,6.80
2023-04-14T18:21:43.228Z,6.79
2023-04-14T18:26:45.153Z,6.78
2023-04-14T18:29:13.451Z,6.79
2023-04-14T18:31:42.888Z,6.79
2023-04-14T18:34:20.956Z,6.79
2023-04-14T18:36:52.088Z,6.79
2023-04-14T18:39:20.916Z,6.79
2023-04-14T18:41:50.307Z,6.76
2023-04-14T18:44:18.901Z,6.72
2023-04-14T18:46:47.261Z,6.69
2023-04-14T18:49:15.751Z,6.65
2023-04-14T18:51:45.486Z,6.63
2023-04-14T18:54:14.891Z,6.62
2023-04-14T18:56:43.617Z,6.59
2023-04-14T18:59:12.798Z,6.59
2023-04-14T19:01:43.118Z,6.58
2023-04-14T19:04:11.425Z,6.57
2023-04-14T19:06:43.266Z,6.57
2023-04-14T19:09:11.913Z,6.56
2023-04-14T19:11:42.461Z,6.56
2023-04-14T19:14:13.102Z,6.54
2023-04-14T19:16:41.326Z,6.53
2023-04-14T19:19:09.958Z,6.51
2023-04-14T19:21:39.344Z,6.48
2023-04-14T19:24:08.598Z,6.44
2023-04-14T19:26:40.768Z,6.41
2023-04-14T19:29:12.998Z,6.38
2023-04-14T19:31:41.758Z,6.37
2023-04-14T19:34:10.421Z,6.35
2023-04-14T19:36:40.477Z,6.33
2023-04-14T19:39:09.550Z,6.32
2023-04-14T19:41:39.206Z,6.31
2023-04-14T19:44:08.819Z,6.30
2023-04-14T19:46:37.468Z,6.30
2023-04-14T19:49:08.419Z,6.28
2023-04-14T19:51:37.748Z,6.28
2023-04-14T19:54:09.268Z,6.28
2023-04-14T19:56:38.555Z,6.27
2023-04-14T19:59:08.462Z,6.26
2023-04-14T20:01:37.286Z,6.26
2023-04-14T20:04:11.731Z,6.27
2023-04-14T20:06:41.704Z,6.28
2023-04-14T20:09:10.496Z,6.27
2023-04-14T20:11:39.366Z,6.26
2023-04-14T20:14:07.976Z,6.23
2023-04-14T20:16:40.890Z,6.21
2023-04-14T20:19:09.738Z,6.18
2023-04-14T20:21:38.911Z,6.17
2023-04-14T20:24:07.369Z,6.18
2023-04-14T20:26:42.912Z,6.17
2023-04-14T20:29:16.285Z,6.16
2023-04-14T20:31:45.218Z,6.15
2023-04-14T20:34:17.055Z,6.14
2023-04-14T20:36:46.624Z,6.13
2023-04-14T20:39:15.329Z,6.10
2023-04-14T20:41:46.718Z,6.07
2023-04-14T20:44:16.231Z,6.05
2023-04-14T20:46:44.488Z,6.03
2023-04-14T20:49:13.552Z,6.02
2023-04-14T20:51:42.682Z,6.01
2023-04-14T20:54:11.232Z,6.00
2023-04-14T20:56:40.310Z,5.98
2023-04-14T20:59:10.484Z,5.98
2023-04-14T21:01:39.049Z,5.97
2023-04-14T21:04:07.300Z,5.96
2023-04-14T21:06:38.930Z,5.94
2023-04-14T21:09:07.458Z,5.95
2023-04-14T21:11:37.300Z,5.93
2023-04-14T21:15:40.375Z,5.92
2023-04-14T21:16:56.371Z,5.92
2023-04-14T21:19:27.408Z,5.93
2023-04-14T21:21:56.049Z,5.92
2023-04-14T21:24:25.316Z,5.92
2023-04-14T21:26:54.138Z,5.92
2023-04-14T21:29:23.690Z,5.91
2023-04-14T21:31:53.935Z,5.90
2023-04-14T21:34:22.233Z,5.88
2023-04-14T21:36:51.423Z,5.88
2023-04-14T21:39:20.636Z,5.88
2023-04-14T21:41:49.506Z,5.88
2023-04-14T21:44:18.899Z,5.87
2023-04-14T21:46:47.157Z,5.87
2023-04-14T21:49:17.285Z,5.86
2023-04-14T21:51:45.573Z,5.84
2023-04-14T21:54:15.037Z,5.82
2023-04-14T21:56:43.492Z,5.81
2023-04-14T21:59:11.730Z,5.80
2023-04-14T22:01:41.380Z,5.79
2023-04-14T22:04:14.538Z,5.78
2023-04-14T22:06:48.098Z,5.78
2023-04-14T22:09:17.068Z,5.78
2023-04-14T22:11:45.941Z,5.79
2023-04-14T22:14:14.184Z,5.79
2023-04-14T22:16:45.215Z,5.81
2023-04-14T22:19:14.800Z,5.79
2023-04-14T22:21:43.800Z,5.80
2023-04-14T22:24:12.849Z,5.79
2023-04-14T22:26:42.323Z,5.79
2023-04-14T22:29:11.673Z,5.80
2023-04-14T22:31:40.496Z,5.79
2023-04-14T22:34:10.432Z,5.78
2023-04-14T22:36:38.792Z,5.76
2023-04-14T22:39:07.555Z,5.75
2023-04-14T22:41:37.457Z,5.73
2023-04-14T22:44:06.927Z,5.72
2023-04-14T22:46:35.671Z,5.72
2023-04-14T22:49:04.588Z,5.72
2023-04-14T22:51:33.535Z,5.73
2023-04-14T22:54:04.936Z,5.73
2023-04-14T22:56:33.567Z,5.71
2023-04-14T22:59:02.614Z,5.70
2023-04-14T23:01:31.730Z,5.69
2023-04-14T23:04:00.602Z,5.68
2023-04-14T23:06:29.304Z,5.68
2023-04-14T23:08:59.898Z,5.66
2023-04-14T23:11:30.548Z,5.65
2023-04-14T23:13:58.735Z,5.64
2023-04-14T23:16:29.059Z,5.63
2023-04-14T23:19:07.304Z,5.62
2023-04-14T23:21:35.640Z,5.62
2023-04-14T23:24:04.354Z,5.64
2023-04-14T23:26:43.238Z,5.65
2023-04-14T23:29:12.457Z,5.65
2023-04-14T23:31:40.848Z,5.64
2023-04-14T23:34:12.933Z,5.65
2023-04-14T23:36:41.934Z,5.65
2023-04-14T23:39:10.545Z,5.66
2023-04-14T23:41:41.993Z,5.65
2023-04-14T23:44:10.690Z,5.64
2023-04-14T23:46:39.925Z,5.64
2023-04-14T23:49:24.539Z,5.64
2023-04-14T23:51:57.078Z,5.63
2023-04-14T23:54:26.210Z,5.62
2023-04-14T23:56:55.073Z,5.61
2023-04-14T23:59:24.099Z,5.63
